Cincinnati, Ohio
Traffic Map
Current Weather Conditions
Cincinnati, Ohio
Overcast Light Rain
Overcast
64°
Feels Like: 64°
Wind Chill: 64° Ceiling: 10000
Heat Index: 64° Visibility: 10mi
Dew Point: 57° Wind: 9mph
Humidity: 78% Direction: 40° (NE)
Pressure: 30.24in Gusts: 0mph
Raw Report DataKLUK 221653Z 04008KT 10SM -RA FEW080 OVC100 18/14 A3024 RMK AO2 RAB50 SLP237 P0000 T01780139
Traffic Incident Summary
Active as of:
Severity:
Category:
InformationThere was an issue retrieving the traffic information for this location. Please try a different location or try again shortly.
Advertisements